createdAt,value
2019-01-29T00:01:50.570Z,2.60
2019-01-29T00:04:24.314Z,2.50
2019-01-29T00:06:57.940Z,2.40
2019-01-29T00:09:31.620Z,2.30
2019-01-29T00:12:05.456Z,2.30
2019-01-29T00:14:40.101Z,2.10
2019-01-29T00:17:13.984Z,2.10
2019-01-29T00:19:47.729Z,2.10
2019-01-29T00:22:21.435Z,2.00
2019-01-29T00:24:55.140Z,2.00
2019-01-29T00:27:29.745Z,1.80
2019-01-29T00:30:04.324Z,1.80
2019-01-29T00:32:38.170Z,1.80
2019-01-29T00:35:12.594Z,1.70
2019-01-29T00:37:46.504Z,1.70
2019-01-29T00:40:20.429Z,1.70
2019-01-29T00:42:54.041Z,1.80
2019-01-29T00:45:28.641Z,2.00
2019-01-29T00:48:02.252Z,2.00
2019-01-29T00:50:35.992Z,2.10
2019-01-29T00:53:09.891Z,2.20
2019-01-29T00:55:43.661Z,2.30
2019-01-29T00:58:17.343Z,2.50
2019-01-29T01:00:51.048Z,2.60
2019-01-29T01:03:25.704Z,2.70
2019-01-29T01:05:59.427Z,2.70
2019-01-29T01:08:33.153Z,2.80
2019-01-29T01:11:06.797Z,2.70
2019-01-29T01:13:40.685Z,2.70
2019-01-29T01:16:14.240Z,2.60
2019-01-29T01:18:48.112Z,2.40
2019-01-29T01:21:22.741Z,2.40
2019-01-29T01:23:56.456Z,2.40
2019-01-29T01:26:30.185Z,2.50
2019-01-29T01:29:04.058Z,2.40
2019-01-29T01:31:37.758Z,2.20
2019-01-29T01:34:11.480Z,2.20
2019-01-29T01:36:45.924Z,2.00
2019-01-29T01:39:19.808Z,2.00
2019-01-29T01:41:54.436Z,2.10
2019-01-29T01:44:28.328Z,2.10
2019-01-29T01:47:02.152Z,2.30
2019-01-29T01:49:35.973Z,2.50
2019-01-29T01:52:09.559Z,2.60
2019-01-29T01:54:44.171Z,2.60
2019-01-29T01:57:17.875Z,2.60
2019-01-29T01:59:51.712Z,2.70
2019-01-29T02:02:26.436Z,2.70
2019-01-29T02:05:00.234Z,2.60
2019-01-29T02:07:34.638Z,2.50
2019-01-29T02:10:14.049Z,2.40
2019-01-29T02:12:47.768Z,2.40
2019-01-29T02:15:21.964Z,2.40
2019-01-29T02:17:55.534Z,2.30
2019-01-29T02:20:29.300Z,2.20
2019-01-29T02:23:07.905Z,2.10
2019-01-29T02:25:36.540Z,2.10
2019-01-29T02:28:10.197Z,2.20
2019-01-29T02:30:44.068Z,2.20
2019-01-29T02:33:17.962Z,2.30
2019-01-29T02:35:51.920Z,2.30
2019-01-29T02:38:25.720Z,2.40
2019-01-29T02:40:59.540Z,2.50
2019-01-29T02:43:34.076Z,2.30
2019-01-29T02:46:07.990Z,2.30
2019-01-29T02:48:41.648Z,2.30
2019-01-29T02:51:15.416Z,2.40
2019-01-29T02:53:49.337Z,2.30
2019-01-29T02:56:22.999Z,2.30
2019-01-29T02:58:57.641Z,2.20
2019-01-29T03:01:31.557Z,2.20
2019-01-29T03:04:05.244Z,2.00
2019-01-29T03:06:38.863Z,1.90
2019-01-29T03:09:12.439Z,2.00
2019-01-29T03:11:46.871Z,1.90
2019-01-29T03:14:20.788Z,1.90
2019-01-29T03:16:54.576Z,1.90
2019-01-29T03:19:28.256Z,1.80
2019-01-29T03:22:01.982Z,1.70
2019-01-29T03:24:35.639Z,1.80
2019-01-29T03:27:09.209Z,1.80
2019-01-29T03:29:43.206Z,1.90
2019-01-29T03:32:17.076Z,1.90
2019-01-29T03:34:50.736Z,2.10
2019-01-29T03:37:24.665Z,1.90
2019-01-29T03:39:58.554Z,2.00
2019-01-29T03:42:32.241Z,2.10
2019-01-29T03:45:05.856Z,2.20
2019-01-29T03:47:39.533Z,2.00
2019-01-29T03:50:13.911Z,2.00
2019-01-29T03:52:48.372Z,2.10
2019-01-29T03:55:22.246Z,2.10
2019-01-29T03:57:55.848Z,2.00
2019-01-29T04:00:29.414Z,1.90
2019-01-29T04:03:03.168Z,1.80
2019-01-29T04:05:36.920Z,1.80
2019-01-29T04:08:11.548Z,1.80
2019-01-29T04:10:46.159Z,1.80
2019-01-29T04:13:20.056Z,1.80
2019-01-29T04:15:53.860Z,1.80
2019-01-29T04:18:27.592Z,1.90
2019-01-29T04:21:01.270Z,1.90
2019-01-29T04:23:35.192Z,1.90
2019-01-29T04:26:08.880Z,1.90
2019-01-29T04:28:42.784Z,2.00
2019-01-29T04:31:16.432Z,2.00
2019-01-29T04:33:50.325Z,2.10
2019-01-29T04:36:24.273Z,2.10
2019-01-29T04:38:58.096Z,2.10
2019-01-29T04:41:31.705Z,2.20
2019-01-29T04:44:06.132Z,2.10
2019-01-29T04:46:40.010Z,2.10
2019-01-29T04:49:14.496Z,2.10
2019-01-29T04:51:49.107Z,2.00
2019-01-29T04:54:23.063Z,2.00
2019-01-29T04:56:57.656Z,2.00
2019-01-29T04:59:31.542Z,2.00
2019-01-29T05:02:05.425Z,2.10
2019-01-29T05:04:39.101Z,2.10
2019-01-29T05:07:12.760Z,2.10
2019-01-29T05:09:46.440Z,1.90
2019-01-29T05:12:20.210Z,1.80
2019-01-29T05:14:54.118Z,1.70
2019-01-29T05:17:28.537Z,1.70
2019-01-29T05:20:02.497Z,1.60
2019-01-29T05:22:36.833Z,1.40
2019-01-29T05:25:10.738Z,1.40
2019-01-29T05:27:44.649Z,1.40
2019-01-29T05:30:20.759Z,1.50
2019-01-29T05:32:53.583Z,1.40
2019-01-29T05:35:28.117Z,1.20
2019-01-29T05:38:04.084Z,1.20
2019-01-29T05:40:35.630Z,1.20
2019-01-29T05:43:09.249Z,1.20
2019-01-29T05:45:43.734Z,1.10
2019-01-29T05:48:18.363Z,1.10
2019-01-29T05:50:52.996Z,1.20
2019-01-29T05:53:26.797Z,1.20
2019-01-29T05:56:01.225Z,1.20
2019-01-29T05:58:35.092Z,1.20
2019-01-29T06:01:09.764Z,1.10
2019-01-29T06:03:43.552Z,1.10
2019-01-29T06:06:17.272Z,1.10
2019-01-29T06:08:50.973Z,1.10
2019-01-29T06:11:24.721Z,1.10
2019-01-29T06:13:59.101Z,0.90
2019-01-29T06:16:33.713Z,0.80
2019-01-29T06:19:07.556Z,0.80
2019-01-29T06:21:41.357Z,0.70
2019-01-29T06:24:14.938Z,0.70
2019-01-29T06:26:48.598Z,0.70
2019-01-29T06:29:22.464Z,0.80
2019-01-29T06:31:56.288Z,0.80
2019-01-29T06:34:30.934Z,0.70
2019-01-29T06:37:04.796Z,0.70
2019-01-29T06:39:38.406Z,0.80
2019-01-29T06:42:12.025Z,0.90
2019-01-29T06:44:45.728Z,0.90
2019-01-29T06:47:19.383Z,0.80
2019-01-29T06:49:53.148Z,0.80
2019-01-29T06:52:27.008Z,0.80
2019-01-29T06:55:00.735Z,0.90
2019-01-29T06:57:34.576Z,1.00
2019-01-29T07:00:12.921Z,1.20
2019-01-29T07:02:46.742Z,1.20
2019-01-29T16:49:55.829Z,2.30
2019-01-29T16:52:29.452Z,2.30
2019-01-29T16:55:03.016Z,2.30
2019-01-29T16:57:37.598Z,2.60
2019-01-29T17:00:27.183Z,2.60
2019-01-29T17:03:00.947Z,2.70
2019-01-29T17:05:34.524Z,2.80
2019-01-29T17:08:08.224Z,2.80
2019-01-29T17:10:41.886Z,2.90
2019-01-29T17:13:15.772Z,3.00
2019-01-29T17:15:49.632Z,3.00
2019-01-29T17:18:23.320Z,3.00
2019-01-29T17:20:57.057Z,3.00
2019-01-29T17:23:30.672Z,2.90
2019-01-29T17:26:04.420Z,3.00
2019-01-29T17:28:38.132Z,2.90
2019-01-29T17:31:12.068Z,2.90
2019-01-29T17:33:45.732Z,2.80
2019-01-29T17:36:19.464Z,2.70
2019-01-29T17:38:53.152Z,2.70
2019-01-29T17:41:26.823Z,2.60
2019-01-29T17:44:00.641Z,2.50
2019-01-29T17:46:34.366Z,2.50
2019-01-29T17:49:07.940Z,2.40
2019-01-29T17:51:41.817Z,2.40
2019-01-29T17:54:15.532Z,2.30
2019-01-29T17:56:49.163Z,2.30
2019-01-29T17:59:22.932Z,2.20
2019-01-29T18:01:56.812Z,2.10
2019-01-29T18:04:30.677Z,2.00
2019-01-29T18:07:04.285Z,2.10
2019-01-29T18:09:38.009Z,2.10
2019-01-29T18:12:12.500Z,2.20
2019-01-29T18:14:47.053Z,2.10
2019-01-29T18:17:20.856Z,2.10
2019-01-29T18:19:54.641Z,2.10
2019-01-29T18:22:28.544Z,2.10
2019-01-29T18:25:02.190Z,1.90
2019-01-29T18:27:35.810Z,1.90
2019-01-29T18:30:20.372Z,1.70
2019-01-29T18:32:54.160Z,1.70
2019-01-29T18:35:27.838Z,1.70
2019-01-29T18:38:01.648Z,1.70
2019-01-29T18:40:46.299Z,1.70
2019-01-29T18:43:19.952Z,1.70
2019-01-29T18:45:54.508Z,1.60
2019-01-29T18:48:29.164Z,1.60
2019-01-29T18:51:02.851Z,1.50
2019-01-29T18:53:36.572Z,1.60
2019-01-29T18:56:11.961Z,1.60
2019-01-29T18:58:45.708Z,1.60
2019-01-29T19:01:19.524Z,1.50
2019-01-29T19:03:53.232Z,1.50
2019-01-29T19:06:27.036Z,1.40
2019-01-29T19:09:00.962Z,1.50
2019-01-29T19:11:35.328Z,1.50
2019-01-29T19:14:09.904Z,1.50
2019-01-29T19:16:43.760Z,1.40
2019-01-29T19:19:17.480Z,1.40
2019-01-29T19:21:51.350Z,1.30
2019-01-29T19:24:25.201Z,1.30
2019-01-29T19:26:59.887Z,1.40
2019-01-29T19:29:33.431Z,1.30
2019-01-29T19:32:07.119Z,1.30
2019-01-29T19:34:41.744Z,1.30
2019-01-29T19:37:15.585Z,1.30
2019-01-29T19:39:49.291Z,1.20
2019-01-29T19:42:27.560Z,1.20
2019-01-29T19:44:56.764Z,1.30
2019-01-29T19:47:31.293Z,1.20
2019-01-29T19:50:06.689Z,1.10
2019-01-29T19:52:40.554Z,1.10
2019-01-29T19:55:14.404Z,1.10
2019-01-29T19:57:48.028Z,1.20
2019-01-29T20:00:26.044Z,1.20
2019-01-29T20:02:59.629Z,1.10
2019-01-29T20:05:34.289Z,1.10
2019-01-29T20:08:07.893Z,1.10
2019-01-29T20:10:41.676Z,1.10
2019-01-29T20:13:15.306Z,1.10
2019-01-29T20:15:49.220Z,1.10
2019-01-29T20:18:22.874Z,1.00
2019-01-29T20:20:56.552Z,1.00
2019-01-29T20:23:30.336Z,1.00
2019-01-29T20:26:05.040Z,1.00
2019-01-29T20:28:42.409Z,1.00
2019-01-29T20:31:14.952Z,0.90
2019-01-29T20:33:46.193Z,0.90
2019-01-29T20:36:20.865Z,0.90
2019-01-29T20:38:54.448Z,0.90
2019-01-29T20:41:28.927Z,0.90
2019-01-29T20:44:02.535Z,0.90
2019-01-29T20:46:36.496Z,0.90
2019-01-29T20:49:10.112Z,0.80
2019-01-29T20:51:44.060Z,0.80
2019-01-29T20:54:17.944Z,0.70
2019-01-29T20:56:51.612Z,0.70
2019-01-29T20:59:25.346Z,0.70
2019-01-29T21:01:59.964Z,0.70
2019-01-29T21:04:33.889Z,0.70
2019-01-29T21:07:07.780Z,0.70
2019-01-29T21:09:42.443Z,0.70
2019-01-29T21:12:16.329Z,0.60
2019-01-29T21:14:49.961Z,0.60
2019-01-29T21:17:23.728Z,0.80
2019-01-29T21:19:58.356Z,0.80
2019-01-29T21:22:32.252Z,0.80
2019-01-29T21:25:05.897Z,0.80
2019-01-29T21:27:40.406Z,0.90
2019-01-29T21:30:17.056Z,0.90
2019-01-29T21:32:50.808Z,1.00
2019-01-29T21:35:24.529Z,1.00
2019-01-29T21:37:58.883Z,1.00
2019-01-29T21:40:33.524Z,1.00
2019-01-29T21:43:07.404Z,1.00
2019-01-29T21:45:41.235Z,1.00
2019-01-29T21:48:14.936Z,0.90
2019-01-29T21:50:49.469Z,1.00
2019-01-29T21:53:23.366Z,1.00
2019-01-29T21:55:56.980Z,1.10
2019-01-29T21:58:30.686Z,1.10
2019-01-29T22:01:04.268Z,1.10
2019-01-29T22:03:38.120Z,1.10
2019-01-29T22:06:11.920Z,1.10
2019-01-29T22:08:45.720Z,1.20
2019-01-29T22:11:20.329Z,1.20
2019-01-29T22:13:54.232Z,1.20
2019-01-29T22:16:27.871Z,1.20
2019-01-29T22:19:01.541Z,1.30
2019-01-29T22:21:35.390Z,1.20
2019-01-29T22:24:09.176Z,1.20
2019-01-29T22:26:42.788Z,1.10
2019-01-29T22:29:23.112Z,0.80
2019-01-29T22:31:51.059Z,0.90
2019-01-29T22:34:24.740Z,1.00
2019-01-29T22:36:58.532Z,1.10
2019-01-29T22:39:33.120Z,1.00
2019-01-29T22:42:06.788Z,0.90
2019-01-29T22:44:40.440Z,1.00
2019-01-29T22:47:14.260Z,1.00
2019-01-29T22:49:48.849Z,1.10
2019-01-29T22:52:22.809Z,1.10
2019-01-29T22:54:56.577Z,1.10
2019-01-29T22:57:30.208Z,1.10
2019-01-29T23:00:10.204Z,1.10
2019-01-29T23:02:44.024Z,1.00
2019-01-29T23:05:17.757Z,1.00
2019-01-29T23:07:52.460Z,1.00
2019-01-29T23:10:26.312Z,1.00
2019-01-29T23:13:00.220Z,1.00
2019-01-29T23:15:33.930Z,1.10
2019-01-29T23:18:07.576Z,1.10
2019-01-29T23:20:41.185Z,1.10
2019-01-29T23:23:14.908Z,1.10
2019-01-29T23:25:48.628Z,1.10
2019-01-29T23:28:22.212Z,1.10
2019-01-29T23:30:56.869Z,1.00
2019-01-29T23:33:30.685Z,1.00
2019-01-29T23:36:04.318Z,1.10
2019-01-29T23:38:38.048Z,1.10
2019-01-29T23:41:11.740Z,1.10
2019-01-29T23:43:46.350Z,1.00
2019-01-29T23:46:20.972Z,1.00
2019-01-29T23:48:54.896Z,1.00
2019-01-29T23:51:28.693Z,1.00
2019-01-29T23:54:02.293Z,1.00
2019-01-29T23:56:36.049Z,1.00
2019-01-29T23:59:09.684Z,1.00
